EHRD/RTM METAR and TAF weather

Enter ICAO airport designator
Station Type Date Time Source
EHRD METAR 2020/01/18 21:25 UTC NOAA

EHRD 182125Z AUTO 34011KT 300V020 9999 -RA FEW007 SCT025 BKN030 05/02 Q1030 RERA TEMPO 7000 -SHRA SCT020CB


Station Type Date Time Source
EHRD Decoded METAR 2020/01/18 21:25 UTC NOAA

Rotterdam Airport Zestienhoven, Netherlands (EHRD) 51-57N 004-27E -4M
Jan 18, 2020 - 04:25 PM EST / 2020.01.18 2125 UTC
Wind: from the NNW (340 degrees) at 13 MPH (11 KT) (direction variable):0
Visibility: greater than 7 mile(s):0
Sky conditions: mostly cloudy
Weather: light rain; Cumulonimbus clouds observed
Temperature: 41 F (5 C)
Dew Point: 35 F (2 C)
Relative Humidity: 80%
Pressure (altimeter): 30.42 in. Hg (1030 hPa)
ob: EHRD 182125Z AUTO 34011KT 300V020 9999 -RA FEW007 SCT025 BKN030 05/02 Q1030 RERA TEMPO 7000 -SHRA SCT020CB
cycle: 21

Station Type Date Time Source
EHRD TAF 2020/01/18 18:27 UTC NOAA

TAF EHRD 181652Z 1818/1924 29010KT 9999 SCT025 PROB40
TEMPO 1818/1907 7000 -SHRA FEW018CB SCT022
BECMG 1903/1906 35010KT
BECMG 1922/1924 VRB03KT 7000 MIFG

Example: see airport list